Time;durP1;ratioP1;P1;durP2;ratioP2;P2;SDS_P1;SDS_P2;PMS_P1;PMS_P2;Temp;Humidity;BMP_temperature;BMP_pressure;BME280_temperature;BME280_humidity;BME280_pressure;Samples;Min_cycle;Max_cycle;Signal;HPM_P1;HPM_P2
2023/03/23 00:01:51;;;;;;;10.82;10.23;;;;;;;;;;5071551;28;20026;-69
2023/03/23 00:04:17;;;;;;;9.23;8.73;;;;;;;;;;5071562;28;20488;-69
2023/03/23 00:06:45;;;;;;;9.85;9.35;;;;;;;;;;5070355;28;20040;-68
2023/03/23 00:09:11;;;;;;;9.68;9.18;;;;;;;;;;5062010;28;20021;-68
2023/03/23 00:11:36;;;;;;;10.07;9.57;;;;;;;;;;5064631;28;20025;-67
2023/03/23 00:14:01;;;;;;;10.10;9.60;;;;;;;;;;5069077;28;20107;-68
2023/03/23 00:16:37;;;;;;;9.75;9.25;;;;;;;;;;5071352;28;20017;-68
2023/03/23 00:19:03;;;;;;;10.40;9.80;;;;;;;;;;5071548;28;20056;-68
2023/03/23 00:21:34;;;;;;;9.48;8.98;;;;;;;;;;5072936;28;20558;-68
2023/03/23 00:24:03;;;;;;;10.05;9.55;;;;;;;;;;5071355;28;20052;-69
2023/03/23 00:26:29;;;;;;;9.23;8.82;;;;;;;;;;5066061;28;20100;-68
2023/03/23 00:28:55;;;;;;;9.30;8.82;;;;;;;;;;5071443;28;20112;-69
2023/03/23 00:31:20;;;;;;;9.40;8.93;;;;;;;;;;5069546;28;20684;-69
2023/03/23 00:33:45;;;;;;;8.95;8.55;;;;;;;;;;5069874;28;20495;-69
2023/03/23 00:36:12;;;;;;;9.88;9.38;;;;;;;;;;5071289;28;20494;-69
2023/03/23 00:38:37;;;;;;;9.23;8.73;;;;;;;;;;5071336;28;20029;-68
2023/03/23 00:41:03;;;;;;;9.75;9.25;;;;;;;;;;5069747;28;20127;-68
2023/03/23 00:43:29;;;;;;;9.80;9.30;;;;;;;;;;5070387;28;20024;-68
2023/03/23 00:45:55;;;;;;;10.20;9.65;;;;;;;;;;5070679;28;20072;-67
2023/03/23 00:48:22;;;;;;;10.18;9.68;;;;;;;;;;5065410;28;20028;-67
2023/03/23 00:50:48;;;;;;;9.73;9.23;;;;;;;;;;5063344;28;20123;-67
2023/03/23 00:53:13;;;;;;;9.65;9.15;;;;;;;;;;5069185;28;20037;-67
2023/03/23 00:55:40;;;;;;;9.70;9.20;;;;;;;;;;5065248;28;20031;-69
2023/03/23 00:58:05;;;;;;;10.32;9.75;;;;;;;;;;5070529;28;20127;-69
2023/03/23 01:00:31;;;;;;;9.70;9.20;;;;;;;;;;5071240;28;20553;-68
2023/03/23 01:02:56;;;;;;;9.65;9.15;;;;;;;;;;5070717;28;20063;-68
2023/03/23 01:05:21;;;;;;;9.82;9.32;;;;;;;;;;5070021;28;20086;-68
2023/03/23 01:07:48;;;;;;;9.73;9.23;;;;;;;;;;5063884;28;20040;-69
2023/03/23 01:10:15;;;;;;;9.43;8.93;;;;;;;;;;5063907;28;20017;-69
2023/03/23 01:12:42;;;;;;;9.70;9.20;;;;;;;;;;5070821;28;20021;-68
2023/03/23 01:15:07;;;;;;;9.82;9.32;;;;;;;;;;5070294;28;20028;-68
2023/03/23 01:17:32;;;;;;;9.98;9.48;;;;;;;;;;5070356;28;20032;-68
2023/03/23 01:19:58;;;;;;;9.93;9.43;;;;;;;;;;5070513;28;20013;-67
2023/03/23 01:22:23;;;;;;;9.77;9.27;;;;;;;;;;5066708;28;20019;-68
2023/03/23 01:24:49;;;;;;;9.63;9.13;;;;;;;;;;5069307;28;20078;-68
2023/03/23 01:27:14;;;;;;;10.40;9.80;;;;;;;;;;5070533;28;20021;-68
2023/03/23 01:29:40;;;;;;;9.25;8.82;;;;;;;;;;5070525;28;20062;-68
2023/03/23 01:32:05;;;;;;;9.90;9.40;;;;;;;;;;5070110;28;20455;-68
2023/03/23 01:34:31;;;;;;;9.68;9.18;;;;;;;;;;5070408;28;20032;-68
2023/03/23 01:36:57;;;;;;;9.68;9.18;;;;;;;;;;5062428;28;20112;-68
2023/03/23 01:39:22;;;;;;;9.63;9.13;;;;;;;;;;5062780;28;20021;-68
2023/03/23 01:41:47;;;;;;;10.23;9.73;;;;;;;;;;5065139;28;20105;-68
2023/03/23 01:44:12;;;;;;;10.82;10.23;;;;;;;;;;5070302;28;20071;-68
2023/03/23 01:46:38;;;;;;;10.35;9.77;;;;;;;;;;5070471;28;20119;-68
2023/03/23 01:49:07;;;;;;;9.88;9.38;;;;;;;;;;5066219;28;20147;-69
2023/03/23 01:51:35;;;;;;;10.52;9.93;;;;;;;;;;5061491;28;20495;-68
2023/03/23 01:54:03;;;;;;;10.50;9.90;;;;;;;;;;5082917;28;20103;-67
2023/03/23 01:56:40;;;;;;;10.07;9.57;;;;;;;;;;5071765;28;20016;-67
2023/03/23 01:59:07;;;;;;;9.70;9.20;;;;;;;;;;5074072;28;20319;-68
2023/03/23 02:01:36;;;;;;;9.65;9.15;;;;;;;;;;5074059;28;20008;-69
2023/03/23 02:04:02;;;;;;;10.27;9.77;;;;;;;;;;5071096;28;20495;-69
2023/03/23 02:06:27;;;;;;;9.95;9.45;;;;;;;;;;5073991;28;20021;-68
2023/03/23 02:08:53;;;;;;;9.73;9.23;;;;;;;;;;5073784;28;20091;-69
2023/03/23 02:11:19;;;;;;;9.90;9.40;;;;;;;;;;5074059;28;20009;-67
2023/03/23 02:13:45;;;;;;;9.93;9.43;;;;;;;;;;5073099;28;20383;-68
2023/03/23 02:16:14;;;;;;;9.93;9.43;;;;;;;;;;5072636;28;20021;-68
2023/03/23 02:18:51;;;;;;;9.80;9.30;;;;;;;;;;5065599;28;20476;-67
2023/03/23 02:21:25;;;;;;;9.98;9.48;;;;;;;;;;5073681;28;20023;-69
2023/03/23 02:24:20;;;;;;;10.48;9.88;;;;;;;;;;5073809;28;20012;-69
2023/03/23 02:27:02;;;;;;;9.88;9.38;;;;;;;;;;5063013;28;20058;-68
2023/03/23 02:29:27;;;;;;;9.85;9.35;;;;;;;;;;5072626;28;20020;-69
2023/03/23 02:32:08;;;;;;;10.13;9.63;;;;;;;;;;5068697;28;20013;-69
2023/03/23 02:34:40;;;;;;;9.60;9.10;;;;;;;;;;5069135;28;20073;-69
2023/03/23 02:37:09;;;;;;;10.25;9.70;;;;;;;;;;5073317;28;20020;-68
2023/03/23 02:39:42;;;;;;;9.55;9.05;;;;;;;;;;5073418;28;20020;-69
2023/03/23 02:42:09;;;;;;;10.27;9.70;;;;;;;;;;5072925;28;20028;-68
2023/03/23 02:44:37;;;;;;;9.60;9.10;;;;;;;;;;5073773;28;20025;-68
2023/03/23 02:47:04;;;;;;;10.55;9.95;;;;;;;;;;5068751;28;20094;-68
2023/03/23 02:49:31;;;;;;;10.10;9.60;;;;;;;;;;5062165;28;20489;-68
2023/03/23 02:51:58;;;;;;;10.70;10.10;;;;;;;;;;5073498;28;20031;-68
2023/03/23 02:54:25;;;;;;;10.00;9.50;;;;;;;;;;5087336;28;20055;-68
2023/03/23 02:56:51;;;;;;;9.73;9.23;;;;;;;;;;5072436;28;20050;-68
2023/03/23 02:59:17;;;;;;;10.07;9.57;;;;;;;;;;5073069;28;20028;-67
2023/03/23 03:01:42;;;;;;;10.02;9.52;;;;;;;;;;5071378;28;20032;-67
2023/03/23 03:04:13;;;;;;;11.30;10.63;;;;;;;;;;5070257;28;20073;-69
2023/03/23 03:06:58;;;;;;;9.88;9.38;;;;;;;;;;5073826;28;20534;-69
2023/03/23 03:09:39;;;;;;;10.07;9.57;;;;;;;;;;5060551;28;20055;-68
2023/03/23 03:12:09;;;;;;;9.75;9.25;;;;;;;;;;5072811;28;20434;-68
2023/03/23 03:14:38;;;;;;;9.10;8.70;;;;;;;;;;5065866;28;20024;-68
2023/03/23 03:17:07;;;;;;;9.57;9.07;;;;;;;;;;5072826;28;20017;-68
2023/03/23 03:19:39;;;;;;;9.75;9.25;;;;;;;;;;5072429;28;20017;-68
2023/03/23 03:22:07;;;;;;;9.48;8.98;;;;;;;;;;5059529;28;20553;-68
2023/03/23 03:24:33;;;;;;;9.30;8.85;;;;;;;;;;5072613;28;20044;-67
2023/03/23 03:27:00;;;;;;;10.00;9.50;;;;;;;;;;5059390;28;20092;-69
2023/03/23 03:29:29;;;;;;;8.98;8.57;;;;;;;;;;5062901;28;20112;-68
2023/03/23 03:31:55;;;;;;;10.13;9.57;;;;;;;;;;5072437;28;20142;-69
2023/03/23 03:34:21;;;;;;;9.05;8.65;;;;;;;;;;5072728;28;20095;-68
2023/03/23 03:36:47;;;;;;;9.50;9.00;;;;;;;;;;5072573;28;20020;-68
2023/03/23 03:39:17;;;;;;;9.60;9.10;;;;;;;;;;5071673;28;20092;-68
2023/03/23 03:41:42;;;;;;;9.70;9.20;;;;;;;;;;5071886;28;20016;-67
2023/03/23 03:44:08;;;;;;;9.35;8.90;;;;;;;;;;5066548;28;20696;-68
2023/03/23 03:46:34;;;;;;;9.02;8.63;;;;;;;;;;5072440;28;20029;-69
2023/03/23 03:49:00;;;;;;;9.70;9.20;;;;;;;;;;5066671;28;20023;-68
2023/03/23 03:51:27;;;;;;;9.70;9.20;;;;;;;;;;5072363;28;20019;-67
2023/03/23 03:53:53;;;;;;;9.95;9.45;;;;;;;;;;5071914;28;20062;-69
2023/03/23 03:56:19;;;;;;;9.30;8.90;;;;;;;;;;5067393;28;20013;-67
2023/03/23 03:58:45;;;;;;;9.20;8.80;;;;;;;;;;5071904;28;20051;-69
2023/03/23 04:01:10;;;;;;;9.30;8.80;;;;;;;;;;5071928;28;20016;-68
2023/03/23 04:03:36;;;;;;;9.13;8.73;;;;;;;;;;5071918;28;20023;-68
2023/03/23 04:06:02;;;;;;;9.73;9.23;;;;;;;;;;5071297;28;20023;-67
2023/03/23 04:08:28;;;;;;;9.60;9.10;;;;;;;;;;5073487;28;20384;-69
2023/03/23 04:10:53;;;;;;;9.90;9.40;;;;;;;;;;5063914;28;20399;-69
2023/03/23 04:13:19;;;;;;;9.55;9.05;;;;;;;;;;5070960;28;20013;-69
2023/03/23 04:15:45;;;;;;;9.40;8.90;;;;;;;;;;5071737;28;20017;-69
2023/03/23 04:18:11;;;;;;;9.43;8.93;;;;;;;;;;5070622;28;20051;-69
2023/03/23 04:20:37;;;;;;;9.50;9.00;;;;;;;;;;5072108;28;20095;-71
2023/03/23 04:23:02;;;;;;;9.35;8.85;;;;;;;;;;5071943;28;20092;-68
2023/03/23 04:25:28;;;;;;;9.07;8.68;;;;;;;;;;5067900;28;20020;-68
2023/03/23 04:27:53;;;;;;;9.38;8.88;;;;;;;;;;5071265;28;20392;-68
2023/03/23 04:30:23;;;;;;;9.38;8.88;;;;;;;;;;5069388;28;20044;-67
2023/03/23 04:32:55;;;;;;;8.63;8.23;;;;;;;;;;5071506;28;20092;-68
2023/03/23 04:35:21;;;;;;;9.35;8.85;;;;;;;;;;5071224;28;20017;-69
2023/03/23 04:37:46;;;;;;;9.05;8.65;;;;;;;;;;5069956;28;20441;-68
2023/03/23 04:40:14;;;;;;;9.55;9.05;;;;;;;;;;5067936;28;20028;-67
2023/03/23 04:42:41;;;;;;;8.93;8.52;;;;;;;;;;5071057;28;20070;-68
2023/03/23 04:45:08;;;;;;;9.60;9.10;;;;;;;;;;5070818;28;20468;-68
2023/03/23 04:47:39;;;;;;;8.90;8.50;;;;;;;;;;5060883;28;20036;-68
2023/03/23 04:50:06;;;;;;;9.60;9.10;;;;;;;;;;5069263;28;20024;-68
2023/03/23 04:52:31;;;;;;;9.70;9.20;;;;;;;;;;5065916;28;20009;-67
2023/03/23 04:54:57;;;;;;;9.68;9.18;;;;;;;;;;5070968;28;20430;-68
2023/03/23 04:57:23;;;;;;;10.02;9.52;;;;;;;;;;5070974;28;20118;-67
2023/03/23 04:59:48;;;;;;;9.30;8.90;;;;;;;;;;5066248;28;20013;-69
2023/03/23 05:02:14;;;;;;;9.75;9.25;;;;;;;;;;5064249;28;20031;-69
2023/03/23 05:04:40;;;;;;;10.52;10.02;;;;;;;;;;5069727;28;20380;-69
2023/03/23 05:07:07;;;;;;;9.80;9.30;;;;;;;;;;5063234;28;20397;-68
2023/03/23 05:09:33;;;;;;;9.50;9.10;;;;;;;;;;5070922;28;20025;-69
2023/03/23 05:12:04;;;;;;;9.98;9.48;;;;;;;;;;5070413;28;20391;-69
2023/03/23 05:14:29;;;;;;;9.65;9.25;;;;;;;;;;5070995;28;20137;-68
2023/03/23 05:16:54;;;;;;;10.50;10.00;;;;;;;;;;5070827;28;20036;-68
2023/03/23 05:19:20;;;;;;;10.20;9.70;;;;;;;;;;5070470;28;20017;-68
2023/03/23 05:21:45;;;;;;;9.80;9.40;;;;;;;;;;5062898;28;20085;-68
2023/03/23 05:24:10;;;;;;;10.73;10.23;;;;;;;;;;5071455;28;20028;-68
2023/03/23 05:26:36;;;;;;;10.50;10.00;;;;;;;;;;5071149;28;20025;-68
2023/03/23 05:29:01;;;;;;;10.70;10.20;;;;;;;;;;5073044;28;20414;-69
2023/03/23 05:31:27;;;;;;;10.38;9.88;;;;;;;;;;5075125;28;20017;-68
2023/03/23 05:33:52;;;;;;;10.18;9.77;;;;;;;;;;5074829;28;20020;-68
2023/03/23 05:36:17;;;;;;;10.00;9.60;;;;;;;;;;5073306;28;20475;-68
2023/03/23 05:38:45;;;;;;;10.40;9.90;;;;;;;;;;5073843;28;20111;-68
2023/03/23 05:41:19;;;;;;;9.98;9.57;;;;;;;;;;5074515;28;20592;-69
2023/03/23 05:43:44;;;;;;;10.68;10.18;;;;;;;;;;5066701;28;20028;-68
2023/03/23 05:46:10;;;;;;;10.27;9.80;;;;;;;;;;5073964;28;20028;-69
2023/03/23 05:48:36;;;;;;;10.00;9.60;;;;;;;;;;5062723;28;20035;-68
2023/03/23 05:51:02;;;;;;;10.75;10.25;;;;;;;;;;5073666;28;20013;-68
2023/03/23 05:53:29;;;;;;;10.20;9.80;;;;;;;;;;5073255;28;20017;-68
2023/03/23 05:55:57;;;;;;;10.60;10.10;;;;;;;;;;5071306;28;20095;-68
2023/03/23 05:58:22;;;;;;;10.40;9.90;;;;;;;;;;5075074;28;20042;-69
2023/03/23 06:00:48;;;;;;;10.68;10.18;;;;;;;;;;5074255;28;20028;-68
2023/03/23 06:03:15;;;;;;;10.13;9.73;;;;;;;;;;5073915;28;21027;-68
2023/03/23 06:05:44;;;;;;;10.10;9.70;;;;;;;;;;5074003;28;20024;-68
2023/03/23 06:08:09;;;;;;;10.40;9.95;;;;;;;;;;5073549;28;20024;-69
2023/03/23 06:10:36;;;;;;;10.25;9.85;;;;;;;;;;5072885;28;20024;-69
2023/03/23 06:13:01;;;;;;;10.15;9.75;;;;;;;;;;5073586;28;20031;-69
2023/03/23 06:15:29;;;;;;;10.25;9.85;;;;;;;;;;5086490;28;20489;-69
2023/03/23 06:17:56;;;;;;;10.55;10.05;;;;;;;;;;5073448;28;20023;-69
2023/03/23 06:20:23;;;;;;;10.40;9.95;;;;;;;;;;5073677;28;20013;-68
2023/03/23 06:22:48;;;;;;;10.27;9.88;;;;;;;;;;5073626;28;20123;-68
2023/03/23 06:25:15;;;;;;;10.23;9.82;;;;;;;;;;5073651;28;20048;-68
2023/03/23 06:27:41;;;;;;;10.20;9.80;;;;;;;;;;5072740;28;20054;-68
2023/03/23 06:30:06;;;;;;;10.50;10.00;;;;;;;;;;5073736;28;20012;-69
2023/03/23 06:32:32;;;;;;;10.52;10.02;;;;;;;;;;5076162;28;20150;-67
2023/03/23 06:34:57;;;;;;;10.48;9.98;;;;;;;;;;5073297;28;20079;-68
2023/03/23 06:37:24;;;;;;;10.30;9.88;;;;;;;;;;5073455;28;20019;-68
2023/03/23 06:39:49;;;;;;;10.50;10.02;;;;;;;;;;5072064;28;20475;-69
2023/03/23 06:42:14;;;;;;;10.20;9.80;;;;;;;;;;5073394;28;20029;-68
2023/03/23 06:44:40;;;;;;;10.20;9.80;;;;;;;;;;5072255;28;20024;-68
2023/03/23 06:47:05;;;;;;;10.27;9.88;;;;;;;;;;5063597;28;20488;-69
2023/03/23 06:49:31;;;;;;;10.20;9.80;;;;;;;;;;5064060;28;20383;-69
2023/03/23 06:51:57;;;;;;;10.10;9.70;;;;;;;;;;5072581;28;20020;-68
2023/03/23 06:54:22;;;;;;;10.52;10.02;;;;;;;;;;5080850;28;20115;-69
2023/03/23 06:56:47;;;;;;;10.02;9.63;;;;;;;;;;5072907;28;20100;-68
2023/03/23 06:59:13;;;;;;;10.27;9.88;;;;;;;;;;5073070;28;20602;-68
2023/03/23 07:01:39;;;;;;;10.05;9.65;;;;;;;;;;5072065;28;20017;-69
2023/03/23 07:04:05;;;;;;;10.30;9.85;;;;;;;;;;5072808;28;20020;-68
2023/03/23 07:06:30;;;;;;;10.60;10.10;;;;;;;;;;5072680;28;20013;-68
2023/03/23 07:08:55;;;;;;;10.77;10.27;;;;;;;;;;5072626;28;20078;-68
2023/03/23 07:11:20;;;;;;;10.30;9.90;;;;;;;;;;5065629;28;20074;-68
2023/03/23 07:13:46;;;;;;;10.50;10.00;;;;;;;;;;5072717;28;20241;-69
2023/03/23 07:16:11;;;;;;;10.60;10.10;;;;;;;;;;5072667;28;20899;-69
2023/03/23 07:18:38;;;;;;;10.15;9.75;;;;;;;;;;5071921;28;20028;-69
2023/03/23 07:21:03;;;;;;;10.40;9.98;;;;;;;;;;5072382;28;20033;-69
2023/03/23 07:23:30;;;;;;;10.65;10.15;;;;;;;;;;5072877;28;20032;-69
2023/03/23 07:25:55;;;;;;;10.90;10.40;;;;;;;;;;5072297;28;20040;-67
2023/03/23 07:28:21;;;;;;;10.65;10.15;;;;;;;;;;5072185;28;20462;-68
2023/03/23 07:30:46;;;;;;;10.70;10.20;;;;;;;;;;5072146;28;20127;-68
2023/03/23 07:33:12;;;;;;;10.57;10.07;;;;;;;;;;5072199;28;20095;-69
2023/03/23 07:35:37;;;;;;;10.60;10.10;;;;;;;;;;5070898;28;20519;-68
2023/03/23 07:38:03;;;;;;;10.50;10.00;;;;;;;;;;5072143;28;20024;-68
2023/03/23 07:40:32;;;;;;;10.65;10.15;;;;;;;;;;5072177;28;20074;-68
2023/03/23 07:42:59;;;;;;;10.50;10.00;;;;;;;;;;5072291;28;20024;-69
2023/03/23 07:45:24;;;;;;;10.32;9.90;;;;;;;;;;5068119;28;20017;-69
2023/03/23 07:47:50;;;;;;;10.52;10.02;;;;;;;;;;5071738;28;20107;-68
2023/03/23 07:50:16;;;;;;;10.68;10.18;;;;;;;;;;5057894;28;20511;-68
2023/03/23 07:52:41;;;;;;;10.27;9.77;;;;;;;;;;5069605;28;20017;-68
2023/03/23 07:55:08;;;;;;;10.32;9.90;;;;;;;;;;5069887;28;20439;-68
2023/03/23 07:57:33;;;;;;;10.30;9.90;;;;;;;;;;5072086;28;20048;-68
2023/03/23 07:59:59;;;;;;;10.68;10.18;;;;;;;;;;5071761;28;20464;-68
2023/03/23 08:02:25;;;;;;;10.70;10.20;;;;;;;;;;5069095;28;20024;-68
2023/03/23 08:04:50;;;;;;;10.68;10.18;;;;;;;;;;5070544;28;20162;-67
2023/03/23 08:07:17;;;;;;;10.20;9.80;;;;;;;;;;5071640;28;20578;-69
2023/03/23 08:09:43;;;;;;;10.40;9.90;;;;;;;;;;5070901;28;20105;-69
2023/03/23 08:12:09;;;;;;;10.50;10.00;;;;;;;;;;5070280;28;20024;-69
2023/03/23 08:14:34;;;;;;;10.07;9.68;;;;;;;;;;5071583;28;20025;-68
2023/03/23 08:17:00;;;;;;;10.00;9.60;;;;;;;;;;5065871;28;20017;-68
2023/03/23 08:19:26;;;;;;;10.25;9.85;;;;;;;;;;5067858;28;20490;-69
2023/03/23 08:21:51;;;;;;;10.23;9.82;;;;;;;;;;5071366;28;20438;-69
2023/03/23 08:24:17;;;;;;;10.15;9.75;;;;;;;;;;5069769;28;20024;-69
2023/03/23 08:26:42;;;;;;;10.20;9.80;;;;;;;;;;5070749;28;20036;-68
2023/03/23 08:29:08;;;;;;;10.32;9.90;;;;;;;;;;5071161;28;20303;-68
2023/03/23 08:31:35;;;;;;;10.60;10.10;;;;;;;;;;5063709;28;20017;-69
2023/03/23 08:34:01;;;;;;;10.70;10.20;;;;;;;;;;5071386;28;20059;-68
2023/03/23 08:36:27;;;;;;;10.15;9.75;;;;;;;;;;5068357;28;20025;-69
2023/03/23 08:38:53;;;;;;;10.23;9.82;;;;;;;;;;5071221;28;20028;-69
2023/03/23 08:41:19;;;;;;;10.48;9.98;;;;;;;;;;5071100;28;20020;-68
2023/03/23 08:43:44;;;;;;;10.02;9.63;;;;;;;;;;5070538;28;20432;-67
2023/03/23 08:46:11;;;;;;;10.20;9.80;;;;;;;;;;5069396;28;20513;-68
2023/03/23 08:48:37;;;;;;;10.73;10.23;;;;;;;;;;5070820;28;20107;-68
2023/03/23 08:51:03;;;;;;;10.45;9.95;;;;;;;;;;5064363;28;20013;-68
2023/03/23 08:53:31;;;;;;;10.80;10.30;;;;;;;;;;5070753;28;20442;-69
2023/03/23 08:56:02;;;;;;;10.90;10.40;;;;;;;;;;5068059;28;20468;-69
2023/03/23 08:58:29;;;;;;;10.40;9.90;;;;;;;;;;5070816;28;20093;-69
2023/03/23 09:00:54;;;;;;;10.90;10.40;;;;;;;;;;5070136;28;20078;-69
2023/03/23 09:03:19;;;;;;;10.40;9.90;;;;;;;;;;5070274;28;20028;-69
2023/03/23 09:05:45;;;;;;;10.45;9.95;;;;;;;;;;5070816;28;20024;-68
2023/03/23 09:08:12;;;;;;;10.60;10.10;;;;;;;;;;5070866;28;20032;-69
2023/03/23 09:10:38;;;;;;;10.02;9.63;;;;;;;;;;5070783;28;20097;-68
2023/03/23 09:13:04;;;;;;;10.70;10.20;;;;;;;;;;5070632;28;20013;-68
2023/03/23 09:15:29;;;;;;;10.10;9.70;;;;;;;;;;5071058;28;20015;-68
2023/03/23 09:17:56;;;;;;;10.60;10.10;;;;;;;;;;5070056;28;20028;-69
2023/03/23 09:20:24;;;;;;;10.55;10.05;;;;;;;;;;5070786;28;20024;-68
2023/03/23 09:22:51;;;;;;;10.50;10.00;;;;;;;;;;5069304;28;20021;-69
2023/03/23 09:25:20;;;;;;;10.55;10.05;;;;;;;;;;5071040;28;20103;-69
2023/03/23 09:27:49;;;;;;;9.98;9.57;;;;;;;;;;5070970;28;20077;-69
2023/03/23 09:30:14;;;;;;;10.95;10.45;;;;;;;;;;5070405;28;20028;-69
2023/03/23 09:32:40;;;;;;;10.50;10.00;;;;;;;;;;5070691;28;20016;-67
2023/03/23 09:35:11;;;;;;;10.90;10.40;;;;;;;;;;5069185;28;20031;-68
2023/03/23 09:37:37;;;;;;;11.00;10.50;;;;;;;;;;5070618;28;20016;-69
2023/03/23 09:40:03;;;;;;;11.05;10.55;;;;;;;;;;5070312;28;20521;-69
2023/03/23 09:42:31;;;;;;;10.77;10.27;;;;;;;;;;5070276;28;20041;-67
2023/03/23 09:45:11;;;;;;;10.52;10.02;;;;;;;;;;5065923;28;20015;-69
2023/03/23 09:47:36;;;;;;;10.27;9.77;;;;;;;;;;5067025;28;20041;-68
2023/03/23 09:50:10;;;;;;;11.02;10.52;;;;;;;;;;5070465;28;20049;-69
2023/03/23 09:52:47;;;;;;;11.98;11.38;;;;;;;;;;5063767;28;20099;-69
2023/03/23 09:55:15;;;;;;;10.38;9.88;;;;;;;;;;5071530;28;20024;-68
2023/03/23 09:58:00;;;;;;;10.82;10.32;;;;;;;;;;5070103;28;20615;-68
2023/03/23 10:01:02;;;;;;;10.88;10.38;;;;;;;;;;5063548;28;20104;-68
2023/03/23 10:03:37;;;;;;;10.70;10.20;;;;;;;;;;5058847;28;20459;-68
2023/03/23 10:06:02;;;;;;;11.07;10.57;;;;;;;;;;5069721;28;20029;-68
2023/03/23 10:08:31;;;;;;;10.70;10.20;;;;;;;;;;5069394;28;20387;-68
2023/03/23 10:11:02;;;;;;;10.88;10.38;;;;;;;;;;5063624;28;20028;-68
2023/03/23 10:13:28;;;;;;;10.70;10.20;;;;;;;;;;5065144;28;20013;-68
2023/03/23 10:15:54;;;;;;;10.80;10.30;;;;;;;;;;5073206;28;20530;-68
2023/03/23 10:18:37;;;;;;;10.85;10.35;;;;;;;;;;5073688;28;20020;-68
2023/03/23 10:21:03;;;;;;;10.48;9.98;;;;;;;;;;5073619;28;20029;-68
2023/03/23 10:23:35;;;;;;;10.52;10.02;;;;;;;;;;5073634;28;20439;-69
2023/03/23 10:26:19;;;;;;;10.80;10.30;;;;;;;;;;5072810;28;20051;-69
2023/03/23 10:28:56;;;;;;;10.45;9.95;;;;;;;;;;5073242;28;20020;-69
2023/03/23 10:31:39;;;;;;;10.32;9.82;;;;;;;;;;5073705;28;20021;-68
2023/03/23 10:34:13;;;;;;;10.90;10.40;;;;;;;;;;5072045;28;20066;-69
2023/03/23 10:36:51;;;;;;;10.65;10.15;;;;;;;;;;5073382;28;20013;-69
2023/03/23 10:39:19;;;;;;;10.32;9.82;;;;;;;;;;5073232;28;20017;-69
2023/03/23 10:41:44;;;;;;;10.25;9.75;;;;;;;;;;5086434;28;20074;-68
2023/03/23 10:44:11;;;;;;;10.80;10.30;;;;;;;;;;5073405;28;20025;-69
2023/03/23 10:46:50;;;;;;;10.85;10.35;;;;;;;;;;5072686;28;20031;-70
2023/03/23 10:49:24;;;;;;;10.27;9.80;;;;;;;;;;5073273;28;20410;-69
2023/03/23 10:51:59;;;;;;;10.48;9.98;;;;;;;;;;5070665;28;20048;-68
2023/03/23 10:54:31;;;;;;;10.38;9.88;;;;;;;;;;5083409;28;20099;-68
2023/03/23 10:56:57;;;;;;;10.40;9.90;;;;;;;;;;5073040;28;20539;-68
2023/03/23 10:59:29;;;;;;;10.45;9.95;;;;;;;;;;5072842;28;20033;-69
2023/03/23 11:01:57;;;;;;;10.50;10.00;;;;;;;;;;5072798;28;20024;-69
2023/03/23 11:04:23;;;;;;;10.55;10.05;;;;;;;;;;5072940;28;20032;-68
2023/03/23 11:06:54;;;;;;;10.77;10.27;;;;;;;;;;5072880;28;20020;-68
2023/03/23 11:09:21;;;;;;;10.35;9.85;;;;;;;;;;5056038;28;20029;-68
2023/03/23 11:11:50;;;;;;;10.50;10.00;;;;;;;;;;5064157;28;20028;-68
2023/03/23 11:14:24;;;;;;;10.30;9.80;;;;;;;;;;5072736;28;20515;-69
2023/03/23 11:16:55;;;;;;;10.20;9.70;;;;;;;;;;5063936;28;20107;-68
2023/03/23 11:19:31;;;;;;;10.70;10.20;;;;;;;;;;5072650;28;20055;-69
2023/03/23 11:22:06;;;;;;;10.88;10.38;;;;;;;;;;5072410;28;20107;-68
2023/03/23 11:24:43;;;;;;;10.52;10.02;;;;;;;;;;5072520;28;20028;-69
2023/03/23 11:27:09;;;;;;;10.75;10.25;;;;;;;;;;5058956;28;20078;-69
2023/03/23 11:29:35;;;;;;;10.63;10.13;;;;;;;;;;5070967;28;20555;-69
2023/03/23 11:32:00;;;;;;;10.63;10.13;;;;;;;;;;5072241;28;20008;-68
2023/03/23 11:34:56;;;;;;;10.45;9.95;;;;;;;;;;5071544;28;20125;-68
2023/03/23 11:37:28;;;;;;;10.18;9.70;;;;;;;;;;5066992;28;20028;-69
2023/03/23 11:39:59;;;;;;;9.85;9.45;;;;;;;;;;5072226;28;20020;-69
2023/03/23 11:42:28;;;;;;;10.57;10.07;;;;;;;;;;5071186;28;20036;-68
2023/03/23 11:44:53;;;;;;;10.52;10.02;;;;;;;;;;5071546;28;20468;-68
2023/03/23 11:47:30;;;;;;;10.70;10.20;;;;;;;;;;5071394;28;20031;-69
2023/03/23 11:49:55;;;;;;;10.63;10.13;;;;;;;;;;5071992;28;20021;-68
2023/03/23 11:52:21;;;;;;;10.00;9.60;;;;;;;;;;5069931;28;20612;-69
2023/03/23 11:54:49;;;;;;;10.05;9.65;;;;;;;;;;5068034;28;20012;-69
2023/03/23 11:57:15;;;;;;;10.52;10.02;;;;;;;;;;5071781;28;20037;-69
2023/03/23 11:59:41;;;;;;;9.90;9.50;;;;;;;;;;5072195;28;20013;-68
2023/03/23 12:02:12;;;;;;;9.77;9.38;;;;;;;;;;5071780;28;20024;-69
2023/03/23 12:04:47;;;;;;;10.57;10.07;;;;;;;;;;5071966;28;20103;-68
2023/03/23 12:07:12;;;;;;;11.00;10.50;;;;;;;;;;5071858;28;20027;-68
2023/03/23 12:09:39;;;;;;;9.80;9.40;;;;;;;;;;5070857;28;20024;-68
2023/03/23 12:12:04;;;;;;;10.25;9.77;;;;;;;;;;5071765;28;20017;-68
2023/03/23 12:14:36;;;;;;;10.63;10.13;;;;;;;;;;5071557;28;20005;-68
2023/03/23 12:17:07;;;;;;;10.20;9.73;;;;;;;;;;5071781;28;20087;-70
2023/03/23 12:19:38;;;;;;;10.23;9.75;;;;;;;;;;5071905;28;20070;-69
2023/03/23 12:22:22;;;;;;;10.30;9.80;;;;;;;;;;5071242;28;20086;-69
2023/03/23 12:24:59;;;;;;;10.55;10.05;;;;;;;;;;5070580;28;20021;-68
2023/03/23 12:27:25;;;;;;;10.30;9.80;;;;;;;;;;5071514;28;20047;-68
2023/03/23 12:30:09;;;;;;;10.20;9.75;;;;;;;;;;5071443;28;20332;-70
2023/03/23 12:32:55;;;;;;;10.57;10.07;;;;;;;;;;5072679;28;20020;-68
2023/03/23 12:35:22;;;;;;;11.15;10.65;;;;;;;;;;5058917;28;20705;-69
2023/03/23 12:38:06;;;;;;;10.48;9.98;;;;;;;;;;5070140;28;20017;-69
2023/03/23 12:40:34;;;;;;;9.88;9.48;;;;;;;;;;5071630;28;20021;-69
2023/03/23 12:43:05;;;;;;;10.00;9.60;;;;;;;;;;5064446;28;20078;-67
2023/03/23 12:45:48;;;;;;;10.00;9.60;;;;;;;;;;5065543;28;20361;-68
2023/03/23 12:48:23;;;;;;;10.30;9.80;;;;;;;;;;5066403;28;20553;-69
2023/03/23 12:50:48;;;;;;;10.13;9.63;;;;;;;;;;5071214;28;20065;-68
2023/03/23 12:53:23;;;;;;;10.15;9.70;;;;;;;;;;5070930;28;20475;-68
2023/03/23 12:56:08;;;;;;;10.50;10.00;;;;;;;;;;5069307;28;20089;-69
2023/03/23 12:58:36;;;;;;;10.85;10.35;;;;;;;;;;5069727;28;20082;-68
2023/03/23 13:01:01;;;;;;;10.70;10.20;;;;;;;;;;5070735;28;20039;-68
2023/03/23 13:03:40;;;;;;;10.63;10.13;;;;;;;;;;5070712;28;20020;-68
2023/03/23 13:06:06;;;;;;;10.48;9.98;;;;;;;;;;5070876;28;20028;-68
2023/03/23 13:08:37;;;;;;;10.30;9.80;;;;;;;;;;5069817;28;20490;-68
2023/03/23 13:11:10;;;;;;;10.48;9.98;;;;;;;;;;5067146;28;20020;-68
2023/03/23 13:13:44;;;;;;;9.95;9.55;;;;;;;;;;5070982;28;20025;-69
2023/03/23 13:16:10;;;;;;;;;;;;;;;;;;5061785;28;20016;-69
2023/03/23 13:18:47;;;;;;;9.80;9.40;;;;;;;;;;5064209;28;19912;-68
2023/03/23 13:21:26;;;;;;;9.98;9.57;;;;;;;;;;5058254;28;20023;-70
2023/03/23 13:23:56;;;;;;;10.98;10.48;;;;;;;;;;5071615;28;20092;-68
2023/03/23 13:26:22;;;;;;;10.90;10.40;;;;;;;;;;5064699;28;20028;-68
2023/03/23 13:28:56;;;;;;;10.50;10.00;;;;;;;;;;5068394;28;20020;-69
2023/03/23 13:31:25;;;;;;;;;;;;;;;;;;5058870;28;20017;-69
2023/03/23 13:33:51;;;;;;;10.10;9.60;;;;;;;;;;5059000;28;19911;-69
2023/03/23 13:36:26;;;;;;;10.60;10.10;;;;;;;;;;5069123;28;20096;-68
2023/03/23 13:38:52;;;;;;;10.13;9.68;;;;;;;;;;5070421;28;20064;-68
2023/03/23 13:41:20;;;;;;;9.77;9.38;;;;;;;;;;5070368;28;20098;-69
2023/03/23 13:43:45;;;;;;;10.13;9.65;;;;;;;;;;5066870;28;20124;-69
2023/03/23 13:46:11;;;;;;;10.27;9.77;;;;;;;;;;5058204;28;20100;-68
2023/03/23 13:48:40;;;;;;;9.30;8.90;;;;;;;;;;5070247;28;20017;-69
2023/03/23 13:51:23;;;;;;;9.48;9.07;;;;;;;;;;5073636;28;20024;-69
2023/03/23 13:53:51;;;;;;;9.90;9.50;;;;;;;;;;5074011;28;20077;-69
2023/03/23 13:56:21;;;;;;;9.70;9.30;;;;;;;;;;5074362;28;20015;-69
2023/03/23 13:58:52;;;;;;;10.00;9.60;;;;;;;;;;5074335;28;20045;-69
2023/03/23 14:01:19;;;;;;;9.80;9.40;;;;;;;;;;5074199;28;20012;-68
2023/03/23 14:03:50;;;;;;;9.88;9.48;;;;;;;;;;5074237;28;20017;-68
2023/03/23 14:06:20;;;;;;;9.85;9.45;;;;;;;;;;5073911;28;20031;-68
2023/03/23 14:08:49;;;;;;;10.18;9.68;;;;;;;;;;5081618;28;20036;-68
2023/03/23 14:11:16;;;;;;;9.93;9.52;;;;;;;;;;5078435;28;20055;-68
2023/03/23 14:13:47;;;;;;;9.95;9.55;;;;;;;;;;5073807;28;20040;-68
2023/03/23 14:16:17;;;;;;;10.10;9.70;;;;;;;;;;5073868;28;20031;-69
2023/03/23 14:18:48;;;;;;;9.80;9.40;;;;;;;;;;5073894;28;20024;-69
2023/03/23 14:21:15;;;;;;;10.55;10.05;;;;;;;;;;5060422;28;20535;-69
2023/03/23 14:23:41;;;;;;;10.25;9.75;;;;;;;;;;5069385;28;20047;-69
2023/03/23 14:26:12;;;;;;;10.40;9.90;;;;;;;;;;5080924;28;20028;-68
2023/03/23 14:28:42;;;;;;;9.70;9.30;;;;;;;;;;5079296;28;20024;-69
2023/03/23 14:31:21;;;;;;;10.88;10.38;;;;;;;;;;5073390;28;20404;-69
2023/03/23 14:33:48;;;;;;;10.38;9.88;;;;;;;;;;5060001;28;20013;-68
2023/03/23 14:36:14;;;;;;;9.90;9.50;;;;;;;;;;5069238;28;20438;-68
2023/03/23 14:38:39;;;;;;;10.60;10.10;;;;;;;;;;5073296;28;20499;-69